sensor_id;sensor_type;location;lat;lon;timestamp;temperature;humidity
30473;DHT22;17263;48.160;11.452;2023-03-23T00:02:37;9.90;99.90
30473;DHT22;17263;48.160;11.452;2023-03-23T00:05:05;9.90;99.90
30473;DHT22;17263;48.160;11.452;2023-03-23T00:07:33;9.90;99.90
30473;DHT22;17263;48.160;11.452;2023-03-23T00:10:00;9.90;99.90
30473;DHT22;17263;48.160;11.452;2023-03-23T00:12:29;9.80;99.90
30473;DHT22;17263;48.160;11.452;2023-03-23T00:15:04;9.80;99.90
30473;DHT22;17263;48.160;11.452;2023-03-23T00:17:32;9.80;99.90
30473;DHT22;17263;48.160;11.452;2023-03-23T00:20:02;9.80;99.90
30473;DHT22;17263;48.160;11.452;2023-03-23T00:22:31;9.90;99.90
30473;DHT22;17263;48.160;11.452;2023-03-23T00:25:06;9.90;99.90
30473;DHT22;17263;48.160;11.452;2023-03-23T00:27:34;9.80;99.90
30473;DHT22;17263;48.160;11.452;2023-03-23T00:30:00;9.80;99.90
30473;DHT22;17263;48.160;11.452;2023-03-23T00:32:26;9.80;99.90
30473;DHT22;17263;48.160;11.452;2023-03-23T00:34:57;9.80;99.90
30473;DHT22;17263;48.160;11.452;2023-03-23T00:37:26;9.80;99.90
30473;DHT22;17263;48.160;11.452;2023-03-23T00:39:52;9.80;99.90
30473;DHT22;17263;48.160;11.452;2023-03-23T00:42:23;9.80;99.90
30473;DHT22;17263;48.160;11.452;2023-03-23T00:44:49;9.80;99.90
30473;DHT22;17263;48.160;11.452;2023-03-23T00:47:15;9.80;99.90
30473;DHT22;17263;48.160;11.452;2023-03-23T00:49:43;9.80;99.90
30473;DHT22;17263;48.160;11.452;2023-03-23T00:52:09;9.80;99.90
30473;DHT22;17263;48.160;11.452;2023-03-23T00:54:36;9.70;99.90
30473;DHT22;17263;48.160;11.452;2023-03-23T00:57:04;9.70;99.90
30473;DHT22;17263;48.160;11.452;2023-03-23T00:59:30;9.70;99.90
30473;DHT22;17263;48.160;11.452;2023-03-23T01:01:56;9.70;99.90
30473;DHT22;17263;48.160;11.452;2023-03-23T01:04:22;9.70;99.90
30473;DHT22;17263;48.160;11.452;2023-03-23T01:06:50;9.70;99.90
30473;DHT22;17263;48.160;11.452;2023-03-23T01:09:20;9.70;99.90
30473;DHT22;17263;48.160;11.452;2023-03-23T01:11:50;9.70;99.90
30473;DHT22;17263;48.160;11.452;2023-03-23T01:14:18;9.70;99.90
30473;DHT22;17263;48.160;11.452;2023-03-23T01:16:44;9.70;99.90
30473;DHT22;17263;48.160;11.452;2023-03-23T01:19:10;9.70;99.90
30473;DHT22;17263;48.160;11.452;2023-03-23T01:21:37;9.70;99.90
30473;DHT22;17263;48.160;11.452;2023-03-23T01:24:03;9.70;99.90
30473;DHT22;17263;48.160;11.452;2023-03-23T01:26:29;9.70;99.90
30473;DHT22;17263;48.160;11.452;2023-03-23T01:28:55;9.70;99.90
30473;DHT22;17263;48.160;11.452;2023-03-23T01:31:24;9.70;99.90
30473;DHT22;17263;48.160;11.452;2023-03-23T01:33:50;9.70;99.90
30473;DHT22;17263;48.160;11.452;2023-03-23T01:36:19;9.70;99.90
30473;DHT22;17263;48.160;11.452;2023-03-23T01:38:46;9.70;99.90
30473;DHT22;17263;48.160;11.452;2023-03-23T01:41:14;9.70;99.90
30473;DHT22;17263;48.160;11.452;2023-03-23T01:46:32;9.70;99.90
30473;DHT22;17263;48.160;11.452;2023-03-23T01:49:35;9.60;99.90
30473;DHT22;17263;48.160;11.452;2023-03-23T01:51:57;9.60;99.90
30473;DHT22;17263;48.160;11.452;2023-03-23T01:54:25;9.60;99.90
30473;DHT22;17263;48.160;11.452;2023-03-23T01:57:14;9.60;99.90
30473;DHT22;17263;48.160;11.452;2023-03-23T01:59:43;9.50;99.90
30473;DHT22;17263;48.160;11.452;2023-03-23T02:02:12;9.50;99.90
30473;DHT22;17263;48.160;11.452;2023-03-23T02:04:39;9.40;99.90
30473;DHT22;17263;48.160;11.452;2023-03-23T02:07:05;9.40;99.90
30473;DHT22;17263;48.160;11.452;2023-03-23T02:09:31;9.40;99.90
30473;DHT22;17263;48.160;11.452;2023-03-23T02:11:58;9.40;99.90
30473;DHT22;17263;48.160;11.452;2023-03-23T02:14:26;9.40;99.90
30473;DHT22;17263;48.160;11.452;2023-03-23T02:17:02;9.40;99.90
30473;DHT22;17263;48.160;11.452;2023-03-23T02:27:56;9.30;99.90
30473;DHT22;17263;48.160;11.452;2023-03-23T02:30:53;9.30;99.90
30473;DHT22;17263;48.160;11.452;2023-03-23T02:36:23;9.30;99.90
30473;DHT22;17263;48.160;11.452;2023-03-23T02:41:47;9.30;99.90
30473;DHT22;17263;48.160;11.452;2023-03-23T02:44:14;9.30;99.90
30473;DHT22;17263;48.160;11.452;2023-03-23T02:46:41;9.30;99.90
30473;DHT22;17263;48.160;11.452;2023-03-23T02:49:09;9.30;99.90
30473;DHT22;17263;48.160;11.452;2023-03-23T02:51:38;9.30;99.90
30473;DHT22;17263;48.160;11.452;2023-03-23T02:54:05;9.30;99.90
30473;DHT22;17263;48.160;11.452;2023-03-23T02:56:33;9.30;99.90
30473;DHT22;17263;48.160;11.452;2023-03-23T02:59:00;9.30;99.90
30473;DHT22;17263;48.160;11.452;2023-03-23T03:03:54;9.30;99.90
30473;DHT22;17263;48.160;11.452;2023-03-23T03:06:37;9.30;99.90
30473;DHT22;17263;48.160;11.452;2023-03-23T03:09:23;9.20;99.90
30473;DHT22;17263;48.160;11.452;2023-03-23T03:11:55;9.20;99.90
30473;DHT22;17263;48.160;11.452;2023-03-23T03:14:26;9.20;99.90
30473;DHT22;17263;48.160;11.452;2023-03-23T03:19:32;9.20;99.90
30473;DHT22;17263;48.160;11.452;2023-03-23T03:22:01;9.10;99.90
30473;DHT22;17263;48.160;11.452;2023-03-23T03:24:29;9.10;99.90
30473;DHT22;17263;48.160;11.452;2023-03-23T03:26:58;9.20;99.90
30473;DHT22;17263;48.160;11.452;2023-03-23T03:29:31;9.20;99.90
30473;DHT22;17263;48.160;11.452;2023-03-23T03:31:58;9.10;99.90
30473;DHT22;17263;48.160;11.452;2023-03-23T03:34:26;9.10;99.90
30473;DHT22;17263;48.160;11.452;2023-03-23T03:36:54;9.10;99.90
30473;DHT22;17263;48.160;11.452;2023-03-23T03:39:21;9.10;99.90
30473;DHT22;17263;48.160;11.452;2023-03-23T03:41:47;9.10;99.90
30473;DHT22;17263;48.160;11.452;2023-03-23T03:44:14;9.10;99.90
30473;DHT22;17263;48.160;11.452;2023-03-23T03:46:41;9.10;99.90
30473;DHT22;17263;48.160;11.452;2023-03-23T03:49:08;9.10;99.90
30473;DHT22;17263;48.160;11.452;2023-03-23T03:51:36;9.10;99.90
30473;DHT22;17263;48.160;11.452;2023-03-23T03:54:02;9.10;99.90
30473;DHT22;17263;48.160;11.452;2023-03-23T03:56:28;9.10;99.90
30473;DHT22;17263;48.160;11.452;2023-03-23T03:58:54;9.00;99.90
30473;DHT22;17263;48.160;11.452;2023-03-23T04:01:22;9.00;99.90
30473;DHT22;17263;48.160;11.452;2023-03-23T04:03:48;9.10;99.90
30473;DHT22;17263;48.160;11.452;2023-03-23T04:06:15;9.10;99.90
30473;DHT22;17263;48.160;11.452;2023-03-23T04:08:41;9.10;99.90
30473;DHT22;17263;48.160;11.452;2023-03-23T04:11:09;9.10;99.90
30473;DHT22;17263;48.160;11.452;2023-03-23T04:13:36;9.10;99.90
30473;DHT22;17263;48.160;11.452;2023-03-23T04:16:02;9.20;99.90
30473;DHT22;17263;48.160;11.452;2023-03-23T04:18:29;9.20;99.90
30473;DHT22;17263;48.160;11.452;2023-03-23T04:20:58;9.20;99.90
30473;DHT22;17263;48.160;11.452;2023-03-23T04:23:26;9.20;99.90
30473;DHT22;17263;48.160;11.452;2023-03-23T04:25:53;9.20;99.90
30473;DHT22;17263;48.160;11.452;2023-03-23T04:28:23;9.20;99.90
30473;DHT22;17263;48.160;11.452;2023-03-23T04:30:51;9.20;99.90
30473;DHT22;17263;48.160;11.452;2023-03-23T04:33:26;9.20;99.90
30473;DHT22;17263;48.160;11.452;2023-03-23T04:35:53;9.30;99.90
30473;DHT22;17263;48.160;11.452;2023-03-23T04:38:21;9.30;99.90
30473;DHT22;17263;48.160;11.452;2023-03-23T04:40:51;9.30;99.90
30473;DHT22;17263;48.160;11.452;2023-03-23T04:43:21;9.30;99.90
30473;DHT22;17263;48.160;11.452;2023-03-23T04:45:58;9.30;99.90
30473;DHT22;17263;48.160;11.452;2023-03-23T04:48:28;9.30;99.90
30473;DHT22;17263;48.160;11.452;2023-03-23T04:50:55;9.30;99.90
30473;DHT22;17263;48.160;11.452;2023-03-23T04:53:22;9.30;99.90
30473;DHT22;17263;48.160;11.452;2023-03-23T04:55:48;9.30;99.90
30473;DHT22;17263;48.160;11.452;2023-03-23T04:58:15;9.30;99.90
30473;DHT22;17263;48.160;11.452;2023-03-23T05:00:42;9.30;99.90
30473;DHT22;17263;48.160;11.452;2023-03-23T05:03:16;9.40;99.90
30473;DHT22;17263;48.160;11.452;2023-03-23T05:05:43;9.40;99.90
30473;DHT22;17263;48.160;11.452;2023-03-23T05:08:14;9.40;99.90
30473;DHT22;17263;48.160;11.452;2023-03-23T05:10:40;9.40;99.90
30473;DHT22;17263;48.160;11.452;2023-03-23T05:13:06;9.40;99.90
30473;DHT22;17263;48.160;11.452;2023-03-23T05:15:32;9.40;99.90
30473;DHT22;17263;48.160;11.452;2023-03-23T05:17:58;9.40;99.90
30473;DHT22;17263;48.160;11.452;2023-03-23T05:20:24;9.40;99.90
30473;DHT22;17263;48.160;11.452;2023-03-23T05:22:50;9.40;99.90
30473;DHT22;17263;48.160;11.452;2023-03-23T05:25:18;9.40;99.90
30473;DHT22;17263;48.160;11.452;2023-03-23T05:27:45;9.40;99.90
30473;DHT22;17263;48.160;11.452;2023-03-23T05:30:15;9.40;99.90
30473;DHT22;17263;48.160;11.452;2023-03-23T05:32:44;9.40;99.90
30473;DHT22;17263;48.160;11.452;2023-03-23T05:35:11;9.50;99.90
30473;DHT22;17263;48.160;11.452;2023-03-23T05:37:38;9.50;99.90
30473;DHT22;17263;48.160;11.452;2023-03-23T05:40:05;9.50;99.90
30473;DHT22;17263;48.160;11.452;2023-03-23T05:42:33;9.50;99.90
30473;DHT22;17263;48.160;11.452;2023-03-23T05:45:04;9.60;99.90
30473;DHT22;17263;48.160;11.452;2023-03-23T05:47:30;9.70;99.90
30473;DHT22;17263;48.160;11.452;2023-03-23T05:49:57;9.70;99.90
30473;DHT22;17263;48.160;11.452;2023-03-23T05:52:23;9.80;99.90
30473;DHT22;17263;48.160;11.452;2023-03-23T05:54:52;9.90;99.90
30473;DHT22;17263;48.160;11.452;2023-03-23T05:57:19;9.80;99.90
30473;DHT22;17263;48.160;11.452;2023-03-23T05:59:48;9.90;99.90
30473;DHT22;17263;48.160;11.452;2023-03-23T06:02:14;10.00;99.90
30473;DHT22;17263;48.160;11.452;2023-03-23T06:04:41;10.00;99.90
30473;DHT22;17263;48.160;11.452;2023-03-23T06:07:08;10.10;99.90
30473;DHT22;17263;48.160;11.452;2023-03-23T06:09:38;10.10;99.90
30473;DHT22;17263;48.160;11.452;2023-03-23T06:12:05;10.10;99.90
30473;DHT22;17263;48.160;11.452;2023-03-23T06:14:31;10.10;99.90
30473;DHT22;17263;48.160;11.452;2023-03-23T06:16:57;10.10;99.90
30473;DHT22;17263;48.160;11.452;2023-03-23T06:19:23;10.20;99.90
30473;DHT22;17263;48.160;11.452;2023-03-23T06:21:49;10.20;99.90
30473;DHT22;17263;48.160;11.452;2023-03-23T06:24:15;10.20;99.90
30473;DHT22;17263;48.160;11.452;2023-03-23T06:26:41;10.30;99.90
30473;DHT22;17263;48.160;11.452;2023-03-23T06:29:08;10.40;99.90
30473;DHT22;17263;48.160;11.452;2023-03-23T06:31:45;10.40;99.90
30473;DHT22;17263;48.160;11.452;2023-03-23T06:34:12;10.50;99.90
30473;DHT22;17263;48.160;11.452;2023-03-23T06:36:38;10.60;99.90
30473;DHT22;17263;48.160;11.452;2023-03-23T06:39:05;10.60;99.90
30473;DHT22;17263;48.160;11.452;2023-03-23T06:41:32;10.70;99.90
30473;DHT22;17263;48.160;11.452;2023-03-23T06:43:59;10.80;99.90
30473;DHT22;17263;48.160;11.452;2023-03-23T06:46:26;10.90;99.90
30473;DHT22;17263;48.160;11.452;2023-03-23T06:48:52;10.90;99.90
30473;DHT22;17263;48.160;11.452;2023-03-23T06:51:19;11.00;99.90
30473;DHT22;17263;48.160;11.452;2023-03-23T06:53:45;11.00;99.90
30473;DHT22;17263;48.160;11.452;2023-03-23T06:56:11;11.10;99.90
30473;DHT22;17263;48.160;11.452;2023-03-23T06:58:39;11.20;99.90
30473;DHT22;17263;48.160;11.452;2023-03-23T07:01:05;11.30;99.90
30473;DHT22;17263;48.160;11.452;2023-03-23T07:03:31;11.40;99.90
30473;DHT22;17263;48.160;11.452;2023-03-23T07:05:58;11.60;99.90
30473;DHT22;17263;48.160;11.452;2023-03-23T07:08:25;11.70;99.90
30473;DHT22;17263;48.160;11.452;2023-03-23T07:10:53;11.90;99.90
30473;DHT22;17263;48.160;11.452;2023-03-23T07:13:19;12.10;99.90
30473;DHT22;17263;48.160;11.452;2023-03-23T07:15:46;12.30;99.90
30473;DHT22;17263;48.160;11.452;2023-03-23T07:18:12;12.50;99.90
30473;DHT22;17263;48.160;11.452;2023-03-23T07:20:38;12.70;99.90
30473;DHT22;17263;48.160;11.452;2023-03-23T07:23:04;13.00;99.90
30473;DHT22;17263;48.160;11.452;2023-03-23T07:25:34;13.20;99.90
30473;DHT22;17263;48.160;11.452;2023-03-23T07:28:02;13.40;99.90
30473;DHT22;17263;48.160;11.452;2023-03-23T07:30:28;13.50;99.90
30473;DHT22;17263;48.160;11.452;2023-03-23T07:32:56;13.60;99.90
30473;DHT22;17263;48.160;11.452;2023-03-23T07:35:23;13.70;99.90
30473;DHT22;17263;48.160;11.452;2023-03-23T07:37:49;13.70;99.90
30473;DHT22;17263;48.160;11.452;2023-03-23T07:40:17;13.70;99.90
30473;DHT22;17263;48.160;11.452;2023-03-23T07:42:45;13.70;99.90
30473;DHT22;17263;48.160;11.452;2023-03-23T07:45:15;13.80;99.90
30473;DHT22;17263;48.160;11.452;2023-03-23T07:47:41;13.80;99.90
30473;DHT22;17263;48.160;11.452;2023-03-23T07:50:08;13.80;99.90
30473;DHT22;17263;48.160;11.452;2023-03-23T07:52:35;13.90;99.90
30473;DHT22;17263;48.160;11.452;2023-03-23T07:55:02;13.90;99.90
30473;DHT22;17263;48.160;11.452;2023-03-23T07:57:30;13.90;99.90
30473;DHT22;17263;48.160;11.452;2023-03-23T07:59:57;13.90;99.90
30473;DHT22;17263;48.160;11.452;2023-03-23T08:02:24;13.90;99.90
30473;DHT22;17263;48.160;11.452;2023-03-23T08:04:50;13.80;99.90
30473;DHT22;17263;48.160;11.452;2023-03-23T08:07:17;13.80;99.90
30473;DHT22;17263;48.160;11.452;2023-03-23T08:09:46;13.70;99.90
30473;DHT22;17263;48.160;11.452;2023-03-23T08:12:13;13.80;99.90
30473;DHT22;17263;48.160;11.452;2023-03-23T08:14:39;13.80;99.90
30473;DHT22;17263;48.160;11.452;2023-03-23T08:17:07;13.80;99.90
30473;DHT22;17263;48.160;11.452;2023-03-23T08:19:35;14.00;99.90
30473;DHT22;17263;48.160;11.452;2023-03-23T08:22:05;14.00;99.90
30473;DHT22;17263;48.160;11.452;2023-03-23T08:24:32;14.00;99.90
30473;DHT22;17263;48.160;11.452;2023-03-23T08:26:59;14.10;99.90
30473;DHT22;17263;48.160;11.452;2023-03-23T08:29:26;14.20;99.90
30473;DHT22;17263;48.160;11.452;2023-03-23T08:31:53;14.20;99.90
30473;DHT22;17263;48.160;11.452;2023-03-23T08:34:20;14.20;99.90
30473;DHT22;17263;48.160;11.452;2023-03-23T08:36:46;14.30;99.90
30473;DHT22;17263;48.160;11.452;2023-03-23T08:39:13;14.50;99.90
30473;DHT22;17263;48.160;11.452;2023-03-23T08:41:41;14.50;99.90
30473;DHT22;17263;48.160;11.452;2023-03-23T08:44:07;14.60;99.90
30473;DHT22;17263;48.160;11.452;2023-03-23T08:46:34;14.80;99.90
30473;DHT22;17263;48.160;11.452;2023-03-23T08:49:00;14.90;99.90
30473;DHT22;17263;48.160;11.452;2023-03-23T08:51:26;15.00;99.90
30473;DHT22;17263;48.160;11.452;2023-03-23T08:53:53;15.00;99.90
30473;DHT22;17263;48.160;11.452;2023-03-23T08:56:20;15.20;99.90
30473;DHT22;17263;48.160;11.452;2023-03-23T08:58:46;15.40;99.90
30473;DHT22;17263;48.160;11.452;2023-03-23T09:01:13;15.70;99.90
30473;DHT22;17263;48.160;11.452;2023-03-23T09:03:39;15.90;99.90
30473;DHT22;17263;48.160;11.452;2023-03-23T09:06:07;16.10;99.90
30473;DHT22;17263;48.160;11.452;2023-03-23T09:08:35;16.30;99.90
30473;DHT22;17263;48.160;11.452;2023-03-23T09:11:03;16.50;99.90
30473;DHT22;17263;48.160;11.452;2023-03-23T09:13:30;16.70;99.90
30473;DHT22;17263;48.160;11.452;2023-03-23T09:15:57;16.80;99.90
30473;DHT22;17263;48.160;11.452;2023-03-23T09:18:23;17.00;99.90
30473;DHT22;17263;48.160;11.452;2023-03-23T09:20:50;17.00;99.90
30473;DHT22;17263;48.160;11.452;2023-03-23T09:23:16;17.00;99.90
30473;DHT22;17263;48.160;11.452;2023-03-23T09:25:43;17.20;99.80
30473;DHT22;17263;48.160;11.452;2023-03-23T09:28:09;17.40;99.20
30473;DHT22;17263;48.160;11.452;2023-03-23T09:30:37;17.40;99.30
30473;DHT22;17263;48.160;11.452;2023-03-23T09:33:05;17.30;98.40
30473;DHT22;17263;48.160;11.452;2023-03-23T09:35:32;17.30;98.40
30473;DHT22;17263;48.160;11.452;2023-03-23T09:38:01;17.30;98.50
30473;DHT22;17263;48.160;11.452;2023-03-23T09:41:41;17.40;97.90
30473;DHT22;17263;48.160;11.452;2023-03-23T09:43:49;17.40;97.70
30473;DHT22;17263;48.160;11.452;2023-03-23T09:48:59;17.60;96.70
30473;DHT22;17263;48.160;11.452;2023-03-23T09:51:44;17.80;96.00
30473;DHT22;17263;48.160;11.452;2023-03-23T09:54:23;17.90;95.60
30473;DHT22;17263;48.160;11.452;2023-03-23T09:56:50;18.10;95.20
30473;DHT22;17263;48.160;11.452;2023-03-23T09:59:41;18.30;94.10
30473;DHT22;17263;48.160;11.452;2023-03-23T10:02:33;18.50;93.90
30473;DHT22;17263;48.160;11.452;2023-03-23T10:07:49;18.60;92.90
30473;DHT22;17263;48.160;11.452;2023-03-23T10:10:15;18.60;92.80
30473;DHT22;17263;48.160;11.452;2023-03-23T10:12:52;18.50;92.50
30473;DHT22;17263;48.160;11.452;2023-03-23T10:15:32;18.30;92.60
30473;DHT22;17263;48.160;11.452;2023-03-23T10:18:03;18.30;91.90
30473;DHT22;17263;48.160;11.452;2023-03-23T10:20:43;18.10;92.10
30473;DHT22;17263;48.160;11.452;2023-03-23T10:26:12;18.00;91.30
30473;DHT22;17263;48.160;11.452;2023-03-23T10:28:44;18.00;91.20
30473;DHT22;17263;48.160;11.452;2023-03-23T10:31:24;17.90;91.20
30473;DHT22;17263;48.160;11.452;2023-03-23T10:33:54;17.90;91.40
30473;DHT22;17263;48.160;11.452;2023-03-23T10:36:31;18.00;91.30
30473;DHT22;17263;48.160;11.452;2023-03-23T10:39:13;17.80;91.40
30473;DHT22;17263;48.160;11.452;2023-03-23T10:41:42;17.70;91.60
30473;DHT22;17263;48.160;11.452;2023-03-23T10:44:16;17.80;91.60
30473;DHT22;17263;48.160;11.452;2023-03-23T10:46:54;17.70;91.50
30473;DHT22;17263;48.160;11.452;2023-03-23T10:49:41;17.80;91.50
30473;DHT22;17263;48.160;11.452;2023-03-23T10:57:29;17.80;91.60
30473;DHT22;17263;48.160;11.452;2023-03-23T11:02:43;17.70;91.80
30473;DHT22;17263;48.160;11.452;2023-03-23T11:05:20;17.80;91.70
30473;DHT22;17263;48.160;11.452;2023-03-23T11:07:55;17.80;92.10
30473;DHT22;17263;48.160;11.452;2023-03-23T11:10:25;17.90;92.20
30473;DHT22;17263;48.160;11.452;2023-03-23T11:12:52;18.00;91.50
30473;DHT22;17263;48.160;11.452;2023-03-23T11:18:01;17.90;92.10
30473;DHT22;17263;48.160;11.452;2023-03-23T11:20:32;17.90;92.40
30473;DHT22;17263;48.160;11.452;2023-03-23T11:22:59;17.80;92.90
30473;DHT22;17263;48.160;11.452;2023-03-23T11:25:25;17.90;92.30
30473;DHT22;17263;48.160;11.452;2023-03-23T11:27:53;18.00;91.90
30473;DHT22;17263;48.160;11.452;2023-03-23T11:30:21;17.90;91.90
30473;DHT22;17263;48.160;11.452;2023-03-23T11:32:48;18.00;92.10
30473;DHT22;17263;48.160;11.452;2023-03-23T11:35:22;18.10;92.30
30473;DHT22;17263;48.160;11.452;2023-03-23T11:37:52;18.20;91.70
30473;DHT22;17263;48.160;11.452;2023-03-23T11:40:22;18.40;90.90
30473;DHT22;17263;48.160;11.452;2023-03-23T11:54:00;18.70;90.20
30473;DHT22;17263;48.160;11.452;2023-03-23T11:56:28;18.70;89.40
30473;DHT22;17263;48.160;11.452;2023-03-23T11:58:56;18.80;88.90
30473;DHT22;17263;48.160;11.452;2023-03-23T12:04:32;18.90;89.50
30473;DHT22;17263;48.160;11.452;2023-03-23T12:07:10;19.00;88.60
30473;DHT22;17263;48.160;11.452;2023-03-23T12:09:59;19.10;89.70
30473;DHT22;17263;48.160;11.452;2023-03-23T12:15:34;19.30;86.10
30473;DHT22;17263;48.160;11.452;2023-03-23T12:23:24;19.70;80.90
30473;DHT22;17263;48.160;11.452;2023-03-23T12:26:14;19.60;79.90
30473;DHT22;17263;48.160;11.452;2023-03-23T12:29:10;19.50;80.50
30473;DHT22;17263;48.160;11.452;2023-03-23T12:31:47;19.40;81.10
30473;DHT22;17263;48.160;11.452;2023-03-23T12:34:18;19.40;82.50
30473;DHT22;17263;48.160;11.452;2023-03-23T12:44:47;19.40;77.70
30473;DHT22;17263;48.160;11.452;2023-03-23T12:47:30;19.40;77.80
30473;DHT22;17263;48.160;11.452;2023-03-23T12:50:05;19.30;76.70
30473;DHT22;17263;48.160;11.452;2023-03-23T12:55:18;19.30;77.50
30473;DHT22;17263;48.160;11.452;2023-03-23T12:57:53;19.30;77.00
30473;DHT22;17263;48.160;11.452;2023-03-23T13:00:30;19.30;76.80
30473;DHT22;17263;48.160;11.452;2023-03-23T13:03:13;19.30;75.90
30473;DHT22;17263;48.160;11.452;2023-03-23T13:05:54;19.20;73.80
30473;DHT22;17263;48.160;11.452;2023-03-23T13:08:27;19.20;74.00
30473;DHT22;17263;48.160;11.452;2023-03-23T13:11:03;19.00;74.90
30473;DHT22;17263;48.160;11.452;2023-03-23T13:22:21;18.60;77.00
30473;DHT22;17263;48.160;11.452;2023-03-23T13:24:55;18.60;77.80
30473;DHT22;17263;48.160;11.452;2023-03-23T13:27:26;18.70;79.20
30473;DHT22;17263;48.160;11.452;2023-03-23T13:29:57;18.70;81.40
30473;DHT22;17263;48.160;11.452;2023-03-23T13:32:34;18.90;82.20
30473;DHT22;17263;48.160;11.452;2023-03-23T13:35:03;19.10;82.90
30473;DHT22;17263;48.160;11.452;2023-03-23T13:37:29;19.10;82.50
30473;DHT22;17263;48.160;11.452;2023-03-23T13:40:47;19.10;82.40
30473;DHT22;17263;48.160;11.452;2023-03-23T13:43:08;19.10;82.00
30473;DHT22;17263;48.160;11.452;2023-03-23T13:45:46;19.10;82.50
30473;DHT22;17263;48.160;11.452;2023-03-23T13:53:24;18.80;83.10
30473;DHT22;17263;48.160;11.452;2023-03-23T13:58:48;18.60;84.60
30473;DHT22;17263;48.160;11.452;2023-03-23T14:01:17;18.50;85.80
30473;DHT22;17263;48.160;11.452;2023-03-23T14:03:48;18.50;86.90
30473;DHT22;17263;48.160;11.452;2023-03-23T14:06:19;18.50;87.50
30473;DHT22;17263;48.160;11.452;2023-03-23T14:08:53;18.50;86.30
30473;DHT22;17263;48.160;11.452;2023-03-23T14:11:23;18.50;86.70
30473;DHT22;17263;48.160;11.452;2023-03-23T14:14:03;18.50;84.00
30473;DHT22;17263;48.160;11.452;2023-03-23T14:16:39;18.40;83.20
30473;DHT22;17263;48.160;11.452;2023-03-23T14:19:31;18.40;83.40
30473;DHT22;17263;48.160;11.452;2023-03-23T14:22:00;18.30;83.20
30473;DHT22;17263;48.160;11.452;2023-03-23T14:24:28;18.30;83.60
30473;DHT22;17263;48.160;11.452;2023-03-23T14:29:36;18.20;83.90
30473;DHT22;17263;48.160;11.452;2023-03-23T14:32:05;18.20;84.50
30473;DHT22;17263;48.160;11.452;2023-03-23T14:34:33;18.00;84.30
30473;DHT22;17263;48.160;11.452;2023-03-23T14:37:00;18.00;84.40
30473;DHT22;17263;48.160;11.452;2023-03-23T14:39:28;18.00;85.00
30473;DHT22;17263;48.160;11.452;2023-03-23T14:42:00;17.90;85.50
30473;DHT22;17263;48.160;11.452;2023-03-23T14:44:30;18.00;85.30
30473;DHT22;17263;48.160;11.452;2023-03-23T14:47:02;17.90;86.00
30473;DHT22;17263;48.160;11.452;2023-03-23T14:49:41;17.90;86.10
30473;DHT22;17263;48.160;11.452;2023-03-23T14:52:11;17.80;86.90
30473;DHT22;17263;48.160;11.452;2023-03-23T14:54:39;17.70;87.40
30473;DHT22;17263;48.160;11.452;2023-03-23T14:57:16;17.70;87.40
30473;DHT22;17263;48.160;11.452;2023-03-23T14:59:44;17.60;88.00
30473;DHT22;17263;48.160;11.452;2023-03-23T15:02:14;17.60;88.50
30473;DHT22;17263;48.160;11.452;2023-03-23T15:04:41;17.50;88.50
30473;DHT22;17263;48.160;11.452;2023-03-23T15:07:10;17.40;89.20
30473;DHT22;17263;48.160;11.452;2023-03-23T15:09:40;17.40;89.30
30473;DHT22;17263;48.160;11.452;2023-03-23T15:12:18;17.30;90.00
30473;DHT22;17263;48.160;11.452;2023-03-23T15:14:48;17.20;90.30
30473;DHT22;17263;48.160;11.452;2023-03-23T15:17:20;17.20;90.60
30473;DHT22;17263;48.160;11.452;2023-03-23T15:19:47;17.20;90.90
30473;DHT22;17263;48.160;11.452;2023-03-23T15:24:46;17.10;93.30
30473;DHT22;17263;48.160;11.452;2023-03-23T15:27:17;17.10;93.70
30473;DHT22;17263;48.160;11.452;2023-03-23T15:29:59;17.00;94.10
30473;DHT22;17263;48.160;11.452;2023-03-23T15:32:37;16.90;95.90
30473;DHT22;17263;48.160;11.452;2023-03-23T15:35:10;16.90;95.90
30473;DHT22;17263;48.160;11.452;2023-03-23T15:37:48;16.90;95.60
30473;DHT22;17263;48.160;11.452;2023-03-23T15:40:16;16.80;95.60
30473;DHT22;17263;48.160;11.452;2023-03-23T15:42:43;16.80;95.40
30473;DHT22;17263;48.160;11.452;2023-03-23T15:47:46;16.80;95.10
30473;DHT22;17263;48.160;11.452;2023-03-23T15:52:53;16.60;96.00
30473;DHT22;17263;48.160;11.452;2023-03-23T15:55:25;16.50;96.10
30473;DHT22;17263;48.160;11.452;2023-03-23T15:57:54;16.50;95.60
30473;DHT22;17263;48.160;11.452;2023-03-23T16:00:22;16.50;95.10
30473;DHT22;17263;48.160;11.452;2023-03-23T16:02:53;16.40;96.20
30473;DHT22;17263;48.160;11.452;2023-03-23T16:05:20;16.40;96.80
30473;DHT22;17263;48.160;11.452;2023-03-23T16:07:46;16.30;97.30
30473;DHT22;17263;48.160;11.452;2023-03-23T16:10:19;16.20;97.80
30473;DHT22;17263;48.160;11.452;2023-03-23T16:12:45;16.10;98.10
30473;DHT22;17263;48.160;11.452;2023-03-23T16:15:15;16.00;98.00
30473;DHT22;17263;48.160;11.452;2023-03-23T16:17:42;16.00;97.60
30473;DHT22;17263;48.160;11.452;2023-03-23T16:20:19;15.90;97.80
30473;DHT22;17263;48.160;11.452;2023-03-23T16:22:47;15.80;99.00
30473;DHT22;17263;48.160;11.452;2023-03-23T16:25:14;15.80;99.90
30473;DHT22;17263;48.160;11.452;2023-03-23T16:27:41;15.70;99.90
30473;DHT22;17263;48.160;11.452;2023-03-23T16:30:16;15.60;99.90
30473;DHT22;17263;48.160;11.452;2023-03-23T16:32:43;15.50;99.90
30473;DHT22;17263;48.160;11.452;2023-03-23T16:35:09;15.40;99.90
30473;DHT22;17263;48.160;11.452;2023-03-23T16:37:36;15.30;99.90
30473;DHT22;17263;48.160;11.452;2023-03-23T16:40:04;15.40;99.90
30473;DHT22;17263;48.160;11.452;2023-03-23T16:42:30;15.30;99.90
30473;DHT22;17263;48.160;11.452;2023-03-23T16:44:56;15.20;99.90
30473;DHT22;17263;48.160;11.452;2023-03-23T16:47:22;15.20;99.90
30473;DHT22;17263;48.160;11.452;2023-03-23T16:49:51;15.00;99.90
30473;DHT22;17263;48.160;11.452;2023-03-23T16:52:17;15.00;99.90
30473;DHT22;17263;48.160;11.452;2023-03-23T16:54:43;14.90;99.90
30473;DHT22;17263;48.160;11.452;2023-03-23T16:57:10;14.90;99.90
30473;DHT22;17263;48.160;11.452;2023-03-23T16:59:36;14.90;99.90
30473;DHT22;17263;48.160;11.452;2023-03-23T17:02:02;14.80;99.90
30473;DHT22;17263;48.160;11.452;2023-03-23T17:04:29;14.80;99.90
30473;DHT22;17263;48.160;11.452;2023-03-23T17:06:56;14.70;99.90
30473;DHT22;17263;48.160;11.452;2023-03-23T17:09:25;14.70;99.90
30473;DHT22;17263;48.160;11.452;2023-03-23T17:11:51;14.60;99.90
30473;DHT22;17263;48.160;11.452;2023-03-23T17:14:18;14.60;99.90
30473;DHT22;17263;48.160;11.452;2023-03-23T17:16:44;14.60;99.90
30473;DHT22;17263;48.160;11.452;2023-03-23T17:19:10;14.60;99.90
30473;DHT22;17263;48.160;11.452;2023-03-23T17:21:39;14.60;99.90